Time;durP1;ratioP1;P1;durP2;ratioP2;P2;SDS_P1;SDS_P2;PMS_P1;PMS_P2;Temp;Humidity;BMP_temperature;BMP_pressure;BME280_temperature;BME280_humidity;BME280_pressure;Samples;Min_cycle;Max_cycle;Signal;HPM_P1;HPM_P2
2024/04/26 00:01:02;;;;;;;;;;;;;;;9.16;100.00;100199.94;5538438;25;945;-83
2024/04/26 00:03:29;;;;;;;;;;;;;;;9.05;100.00;100189.28;5537339;26;939;-83
2024/04/26 00:05:55;;;;;;;;;;;;;;;8.93;100.00;100195.66;5536210;26;1806;-83
2024/04/26 00:08:21;;;;;;;;;;;;;;;9.14;100.00;100199.22;5536840;26;1206;-83
2024/04/26 00:10:47;;;;;;;;;;;;;;;9.19;100.00;100182.75;5537832;25;981;-83
2024/04/26 00:13:13;;;;;;;;;;;;;;;9.38;100.00;100190.06;5536614;26;819;-83
2024/04/26 00:15:39;;;;;;;;;;;;;;;9.48;100.00;100190.97;5536090;26;980;-83
2024/04/26 00:18:06;;;;;;;;;;;;;;;9.49;100.00;100190.81;5537228;26;1205;-83
2024/04/26 00:20:32;;;;;;;;;;;;;;;9.39;100.00;100184.56;5536649;26;917;-83
2024/04/26 00:22:58;;;;;;;;;;;;;;;9.50;100.00;100183.66;5503549;26;787;-83
2024/04/26 00:25:24;;;;;;;;;;;;;;;9.63;100.00;100189.63;5535921;25;1805;-83
2024/04/26 00:27:50;;;;;;;;;;;;;;;9.49;100.00;100189.97;5536378;26;1194;-83
2024/04/26 00:30:16;;;;;;;;;;;;;;;9.67;100.00;100195.56;5503498;26;866;-83
2024/04/26 00:32:42;;;;;;;;;;;;;;;9.58;100.00;100191.88;5536642;25;934;-83
2024/04/26 00:35:08;;;;;;;;;;;;;;;9.51;100.00;100181.81;5536724;26;1011;-83
2024/04/26 00:37:36;;;;;;;;;;;;;;;9.40;100.00;100175.56;5536698;25;1225;-83
2024/04/26 00:40:02;;;;;;;;;;;;;;;9.31;100.00;100176.34;5537479;26;1038;-83
2024/04/26 00:42:28;;;;;;;;;;;;;;;9.36;100.00;100174.13;5503899;26;1031;-83
2024/04/26 00:44:54;;;;;;;;;;;;;;;9.40;100.00;100183.59;5533333;26;1846;-83
2024/04/26 00:47:21;;;;;;;;;;;;;;;9.49;100.00;100177.44;5536663;26;1174;-83
2024/04/26 00:49:47;;;;;;;;;;;;;;;9.54;100.00;100176.19;5503502;26;868;-83
2024/04/26 00:52:14;;;;;;;;;;;;;;;9.56;100.00;100166.22;5536901;26;888;-83
2024/04/26 00:54:42;;;;;;;;;;;;;;;9.46;100.00;100167.00;5535535;26;976;-83
2024/04/26 00:57:08;;;;;;;;;;;;;;;9.48;100.00;100165.03;5535917;26;1186;-83
2024/04/26 00:59:34;;;;;;;;;;;;;;;9.45;100.00;100165.31;5536644;25;701;-83
2024/04/26 01:02:00;;;;;;;;;;;;;;;9.40;100.00;100164.00;5535720;25;938;-83
2024/04/26 01:04:29;;;;;;;;;;;;;;;9.43;100.00;100167.25;5535671;26;1016;-83
2024/04/26 01:06:55;;;;;;;;;;;;;;;9.56;100.00;100167.06;5535426;26;1810;-83
2024/04/26 01:09:21;;;;;;;;;;;;;;;9.47;100.00;100173.22;5536815;26;930;-83
2024/04/26 01:11:47;;;;;;;;;;;;;;;9.43;100.00;100167.25;5535899;26;1008;-82
2024/04/26 01:14:13;;;;;;;;;;;;;;;9.51;100.00;100163.91;5536688;25;867;-82
2024/04/26 01:16:39;;;;;;;;;;;;;;;9.64;100.00;100161.88;5535087;26;1189;-83
2024/04/26 01:19:10;;;;;;;;;;;;;;;9.65;100.00;100158.22;5535474;26;992;-82
2024/04/26 01:21:36;;;;;;;;;;;;;;;9.54;100.00;100173.50;5536080;26;677;-83
2024/04/26 01:24:04;;;;;;;;;;;;;;;9.68;100.00;100160.63;5535755;26;911;-83
2024/04/26 01:26:30;;;;;;;;;;;;;;;9.73;100.00;100163.75;5536204;26;1813;-83
2024/04/26 01:28:56;;;;;;;;;;;;;;;9.71;100.00;100164.84;5534887;25;933;-83
2024/04/26 01:31:22;;;;;;;;;;;;;;;9.66;100.00;100153.72;5535383;26;926;-83
2024/04/26 01:33:48;;;;;;;;;;;;;;;9.61;100.00;100167.50;5535826;25;929;-83
2024/04/26 01:36:14;;;;;;;;;;;;;;;9.65;100.00;100168.09;5535265;25;980;-83
2024/04/26 01:38:40;;;;;;;;;;;;;;;9.51;100.00;100169.28;5502443;25;1187;-83
2024/04/26 01:41:06;;;;;;;;;;;;;;;9.46;100.00;100163.50;5535442;26;1078;-83
2024/04/26 01:43:32;;;;;;;;;;;;;;;9.58;100.00;100166.91;5501826;26;795;-83
2024/04/26 01:45:58;;;;;;;;;;;;;;;9.62;100.00;100163.81;5534872;26;1848;-83
2024/04/26 01:48:24;;;;;;;;;;;;;;;9.68;100.00;100155.28;5535943;25;1229;-83
2024/04/26 01:50:50;;;;;;;;;;;;;;;9.72;100.00;100162.03;5536210;25;868;-83
2024/04/26 01:53:16;;;;;;;;;;;;;;;9.85;100.00;100160.97;5535811;26;979;-83
2024/04/26 01:55:42;;;;;;;;;;;;;;;9.91;100.00;100166.63;5535900;25;924;-83
2024/04/26 01:58:08;;;;;;;;;;;;;;;9.95;100.00;100165.38;5535410;26;1174;-83
2024/04/26 02:00:34;;;;;;;;;;;;;;;9.69;100.00;100164.16;5535872;26;906;-83
2024/04/26 02:03:00;;;;;;;;;;;;;;;9.74;100.00;100172.66;5535064;26;973;-83
2024/04/26 02:05:26;;;;;;;;;;;;;;;9.70;100.00;100166.69;5534840;25;1816;-83
2024/04/26 02:07:52;;;;;;;;;;;;;;;9.70;100.00;100168.53;5535623;26;1241;-83
2024/04/26 02:10:19;;;;;;;;;;;;;;;9.66;100.00;100170.63;5535077;26;984;-83
2024/04/26 02:12:46;;;;;;;;;;;;;;;9.58;100.00;100161.56;5535329;26;870;-83
2024/04/26 02:15:12;;;;;;;;;;;;;;;9.75;100.00;100166.31;5502107;26;869;-83
2024/04/26 02:17:38;;;;;;;;;;;;;;;9.84;100.00;100170.00;5534889;26;1204;-83
2024/04/26 02:20:06;;;;;;;;;;;;;;;9.89;100.00;100168.59;5535551;26;913;-83
2024/04/26 02:22:32;;;;;;;;;;;;;;;9.93;100.00;100162.00;5535187;26;945;-83
2024/04/26 02:24:57;;;;;;;;;;;;;;;9.91;100.00;100176.50;5534491;25;897;-83
2024/04/26 02:27:23;;;;;;;;;;;;;;;9.98;100.00;100169.63;5501787;26;1817;-83
2024/04/26 02:29:49;;;;;;;;;;;;;;;10.02;100.00;100163.84;5535114;26;973;-83
2024/04/26 02:32:15;;;;;;;;;;;;;;;10.01;100.00;100163.97;5535674;26;988;-83
2024/04/26 02:34:41;;;;;;;;;;;;;;;9.94;100.00;100170.88;5534164;25;913;-83
2024/04/26 02:37:08;;;;;;;;;;;;;;;9.87;100.00;100167.03;5534982;26;1230;-83
2024/04/26 02:39:34;;;;;;;;;;;;;;;9.75;100.00;100167.16;5535541;26;997;-83
2024/04/26 02:42:00;;;;;;;;;;;;;;;9.81;100.00;100162.22;5535699;26;926;-83
2024/04/26 02:44:26;;;;;;;;;;;;;;;9.81;100.00;100163.06;5538058;26;976;-83
2024/04/26 02:46:52;;;;;;;;;;;;;;;9.74;100.00;100162.78;5537287;25;1844;-83
2024/04/26 02:49:18;;;;;;;;;;;;;;;9.76;100.00;100158.13;5538362;25;898;-83
2024/04/26 02:51:44;;;;;;;;;;;;;;;9.89;100.00;100154.34;5504531;26;857;-83
2024/04/26 02:54:10;;;;;;;;;;;;;;;9.92;100.00;100156.75;5536946;25;984;-82
2024/04/26 02:56:35;;;;;;;;;;;;;;;9.99;100.00;100156.09;5537103;26;1245;-83
2024/04/26 02:59:04;;;;;;;;;;;;;;;10.02;100.00;100161.16;5537410;26;941;-82
2024/04/26 03:01:34;;;;;;;;;;;;;;;10.11;100.00;100162.16;5537268;25;867;-83
2024/04/26 03:04:00;;;;;;;;;;;;;;;10.07;100.00;100158.94;5537582;26;887;-83
2024/04/26 03:06:26;;;;;;;;;;;;;;;10.03;100.00;100165.56;5536506;26;1832;-83
2024/04/26 03:08:52;;;;;;;;;;;;;;;10.01;100.00;100156.78;5537350;26;1339;-83
2024/04/26 03:11:20;;;;;;;;;;;;;;;9.99;100.00;100157.91;5537218;26;815;-83
2024/04/26 03:13:47;;;;;;;;;;;;;;;10.01;100.00;100159.47;5537958;26;937;-83
2024/04/26 03:16:13;;;;;;;;;;;;;;;10.10;100.00;100151.59;5536581;25;910;-83
2024/04/26 03:18:39;;;;;;;;;;;;;;;10.04;100.00;100151.19;5504449;26;1171;-83
2024/04/26 03:21:05;;;;;;;;;;;;;;;10.00;100.00;100157.78;5538307;25;925;-83
2024/04/26 03:23:31;;;;;;;;;;;;;;;9.95;100.00;100154.66;5504720;26;873;-83
2024/04/26 03:25:57;;;;;;;;;;;;;;;9.94;100.00;100149.44;5536290;26;1813;-83
2024/04/26 03:28:23;;;;;;;;;;;;;;;10.02;100.00;100147.75;5537955;26;1159;-83
2024/04/26 03:30:49;;;;;;;;;;;;;;;10.10;100.00;100148.91;5537455;25;913;-83
2024/04/26 03:33:16;;;;;;;;;;;;;;;10.13;100.00;100157.53;5537162;26;968;-83
2024/04/26 03:35:42;;;;;;;;;;;;;;;10.16;100.00;100157.25;5536344;26;915;-83
2024/04/26 03:38:08;;;;;;;;;;;;;;;10.09;100.00;100158.78;5504114;26;1214;-83
2024/04/26 03:40:34;;;;;;;;;;;;;;;10.14;100.00;100156.56;5536858;25;993;-83
2024/04/26 03:43:03;;;;;;;;;;;;;;;10.14;100.00;100155.72;5536807;25;996;-83
2024/04/26 03:45:29;;;;;;;;;;;;;;;10.03;100.00;100156.69;5536325;26;1821;-83
2024/04/26 03:47:55;;;;;;;;;;;;;;;9.96;100.00;100164.41;5536321;26;1214;-83
2024/04/26 03:50:21;;;;;;;;;;;;;;;9.85;100.00;100166.34;5537049;25;974;-83
2024/04/26 03:52:47;;;;;;;;;;;;;;;9.94;100.00;100168.22;5536409;25;981;-83
2024/04/26 03:55:13;;;;;;;;;;;;;;;9.90;100.00;100164.94;5536173;26;929;-82
2024/04/26 03:57:39;;;;;;;;;;;;;;;9.94;100.00;100169.06;5537157;25;1183;-83
2024/04/26 04:00:06;;;;;;;;;;;;;;;9.90;100.00;100169.44;5503196;26;873;-83
2024/04/26 04:02:32;;;;;;;;;;;;;;;9.78;100.00;100164.19;5502955;26;795;-83
2024/04/26 04:04:58;;;;;;;;;;;;;;;9.86;100.00;100160.84;5503080;26;1084;-83
2024/04/26 04:07:24;;;;;;;;;;;;;;;9.90;100.00;100164.09;5503515;26;1851;-83
2024/04/26 04:09:50;;;;;;;;;;;;;;;9.71;100.00;100155.00;5536449;25;824;-83
2024/04/26 04:12:16;;;;;;;;;;;;;;;9.65;100.00;100166.25;5536065;26;1000;-83
2024/04/26 04:14:43;;;;;;;;;;;;;;;9.64;100.00;100156.53;5535917;26;937;-83
2024/04/26 04:17:09;;;;;;;;;;;;;;;9.53;100.00;100145.88;5535991;25;1222;-83
2024/04/26 04:19:35;;;;;;;;;;;;;;;9.58;100.00;100156.22;5536877;26;967;-83
2024/04/26 04:22:01;;;;;;;;;;;;;;;9.67;100.00;100155.41;5536687;26;819;-83
2024/04/26 04:24:27;;;;;;;;;;;;;;;9.79;100.00;100159.69;5535752;26;941;-83
2024/04/26 04:26:52;;;;;;;;;;;;;;;9.82;100.00;100156.72;5536285;26;1813;-83
2024/04/26 04:29:18;;;;;;;;;;;;;;;9.88;100.00;100160.69;5536035;26;827;-83
2024/04/26 04:31:44;;;;;;;;;;;;;;;9.93;100.00;100153.09;5503139;26;809;-83
2024/04/26 04:34:10;;;;;;;;;;;;;;;9.84;100.00;100162.81;5536514;26;798;-82
2024/04/26 04:36:36;;;;;;;;;;;;;;;9.93;100.00;100170.03;5535167;25;1183;-83
2024/04/26 04:39:03;;;;;;;;;;;;;;;9.89;100.00;100163.25;5536431;25;941;-83
2024/04/26 04:41:29;;;;;;;;;;;;;;;9.88;100.00;100166.06;5536125;26;937;-83
2024/04/26 04:43:55;;;;;;;;;;;;;;;9.97;100.00;100166.09;5537356;26;858;-83
2024/04/26 04:46:20;;;;;;;;;;;;;;;9.80;100.00;100166.72;5537268;26;1850;-83
2024/04/26 04:48:47;;;;;;;;;;;;;;;9.85;100.00;100169.03;5537237;25;1185;-83
2024/04/26 04:51:13;;;;;;;;;;;;;;;9.92;100.00;100168.31;5536893;25;949;-83
2024/04/26 04:53:39;;;;;;;;;;;;;;;10.02;100.00;100168.34;5535997;25;957;-85
2024/04/26 04:56:05;;;;;;;;;;;;;;;10.06;100.00;100170.63;5534446;26;885;-82
2024/04/26 04:58:31;;;;;;;;;;;;;;;10.07;100.00;100172.31;5533043;26;1568;-82
2024/04/26 05:00:57;;;;;;;;;;;;;;;10.06;100.00;100175.16;5532550;26;994;-82
2024/04/26 05:03:23;;;;;;;;;;;;;;;10.11;100.00;100169.38;5532777;25;924;-82
2024/04/26 05:05:49;;;;;;;;;;;;;;;10.11;100.00;100170.22;5530848;26;1862;-83
2024/04/26 05:08:15;;;;;;;;;;;;;;;10.23;100.00;100174.53;5532203;25;1167;-82
2024/04/26 05:10:41;;;;;;;;;;;;;;;10.30;100.00;100181.00;5533219;25;977;-82
2024/04/26 05:13:07;;;;;;;;;;;;;;;10.31;100.00;100182.69;5533022;26;1000;-82
2024/04/26 05:15:33;;;;;;;;;;;;;;;10.32;100.00;100183.53;5532621;26;926;-82
2024/04/26 05:18:01;;;;;;;;;;;;;;;10.35;100.00;100183.28;5533411;26;1232;-82
2024/04/26 05:20:27;;;;;;;;;;;;;;;10.41;100.00;100188.09;5533885;26;828;-83
2024/04/26 05:22:53;;;;;;;;;;;;;;;10.46;100.00;100185.84;5534334;26;997;-83
2024/04/26 05:25:20;;;;;;;;;;;;;;;10.52;100.00;100185.31;5535738;26;929;-84
2024/04/26 05:27:48;;;;;;;;;;;;;;;10.58;100.00;100192.78;5535246;26;1923;-82
2024/04/26 05:30:14;;;;;;;;;;;;;;;10.65;100.00;100201.13;5534568;25;915;-83
2024/04/26 05:32:41;;;;;;;;;;;;;;;10.54;100.00;100195.88;5534414;26;906;-83
2024/04/26 05:35:07;;;;;;;;;;;;;;;10.51;100.00;100191.63;5534671;26;906;-82
2024/04/26 05:37:33;;;;;;;;;;;;;;;10.45;100.00;100205.59;5538020;26;1309;-82
2024/04/26 05:39:59;;;;;;;;;;;;;;;10.42;100.00;100196.97;5538447;26;995;-82
2024/04/26 05:42:25;;;;;;;;;;;;;;;10.48;100.00;100201.78;5538168;26;1007;-82
2024/04/26 05:44:51;;;;;;;;;;;;;;;10.41;100.00;100206.84;5536945;26;941;-83
2024/04/26 05:47:17;;;;;;;;;;;;;;;10.33;100.00;100204.88;5504196;26;1817;-82
2024/04/26 05:49:43;;;;;;;;;;;;;;;10.20;100.00;100211.44;5537296;26;981;-83
2024/04/26 05:52:09;;;;;;;;;;;;;;;10.21;100.00;100210.44;5538079;25;979;-82
2024/04/26 05:54:35;;;;;;;;;;;;;;;10.18;100.00;100213.41;5537422;25;976;-83
2024/04/26 05:57:01;;;;;;;;;;;;;;;10.24;100.00;100210.22;5538249;26;1230;-83
2024/04/26 05:59:27;;;;;;;;;;;;;;;10.30;100.00;100212.34;5537172;26;921;-83
2024/04/26 06:01:53;;;;;;;;;;;;;;;10.33;100.00;100212.06;5537836;25;929;-83
2024/04/26 06:04:19;;;;;;;;;;;;;;;10.44;100.00;100221.84;5531021;26;4283;-82
2024/04/26 06:06:46;;;;;;;;;;;;;;;10.53;100.00;100218.34;5499103;26;3381;-83
2024/04/26 06:09:13;;;;;;;;;;;;;;;10.53;100.00;100215.66;5528178;25;1489;-84
2024/04/26 06:11:38;;;;;;;;;;;;;;;10.49;100.00;100219.56;5503696;26;784;-83
2024/04/26 06:14:04;;;;;;;;;;;;;;;10.51;100.00;100222.97;5537770;25;917;-84
2024/04/26 06:16:30;;;;;;;;;;;;;;;10.58;100.00;100224.09;5497817;26;1209;-84
2024/04/26 06:18:58;;;;;;;;;;;;;;;10.66;100.00;100220.75;5501710;26;922;-84
2024/04/26 06:21:24;;;;;;;;;;;;;;;10.69;100.00;100223.13;5499805;26;939;-84
2024/04/26 06:23:50;;;;;;;;;;;;;;;10.72;100.00;100226.41;5499590;26;3255;-82
2024/04/26 06:26:16;;;;;;;;;;;;;;;10.69;100.00;100233.88;5496312;26;1836;-83
2024/04/26 06:28:44;;;;;;;;;;;;;;;10.67;100.00;100233.16;5497051;26;1210;-82
2024/04/26 06:31:11;;;;;;;;;;;;;;;10.71;100.00;100231.88;5498285;26;827;-83
2024/04/26 06:33:36;;;;;;;;;;;;;;;10.70;100.00;100240.91;5506250;26;965;-82
2024/04/26 06:36:03;;;;;;;;;;;;;;;10.73;100.00;100232.63;5537460;26;941;-82
2024/04/26 06:38:29;;;;;;;;;;;;;;;10.76;100.00;100238.53;5533392;26;1190;-83
2024/04/26 06:40:55;;;;;;;;;;;;;;;10.83;100.00;100237.00;5533061;25;920;-82
2024/04/26 06:43:22;;;;;;;;;;;;;;;10.84;100.00;100249.44;5533395;25;992;-82
2024/04/26 06:45:48;;;;;;;;;;;;;;;10.81;100.00;100238.94;5532511;26;922;-82
2024/04/26 06:48:14;;;;;;;;;;;;;;;10.80;100.00;100233.72;5532514;26;1903;-82
2024/04/26 06:50:40;;;;;;;;;;;;;;;10.75;100.00;100242.22;5506604;26;792;-82
2024/04/26 06:53:10;;;;;;;;;;;;;;;10.81;100.00;100235.44;5534077;25;721;-83
2024/04/26 06:55:36;;;;;;;;;;;;;;;10.85;100.00;100247.59;5532641;26;878;-82
2024/04/26 06:58:02;;;;;;;;;;;;;;;10.90;100.00;100250.69;5502863;26;1230;-83
2024/04/26 07:00:28;;;;;;;;;;;;;;;10.84;100.00;100252.13;5511096;26;957;-84
2024/04/26 07:02:54;;;;;;;;;;;;;;;10.81;100.00;100251.53;5500264;26;1005;-83
2024/04/26 07:05:20;;;;;;;;;;;;;;;10.70;100.00;100251.66;5497498;26;934;-82
2024/04/26 07:07:48;;;;;;;;;;;;;;;10.66;100.00;100255.63;5497435;26;1850;-83
2024/04/26 07:10:15;;;;;;;;;;;;;;;10.59;100.00;100248.09;5496318;26;773;-82
2024/04/26 07:12:41;;;;;;;;;;;;;;;10.55;100.00;100248.53;5496537;26;989;-82
2024/04/26 07:15:07;;;;;;;;;;;;;;;10.47;100.00;100254.56;5496619;26;938;-83
2024/04/26 07:17:38;;;;;;;;;;;;;;;10.45;100.00;100261.06;5497545;26;1229;-83
2024/04/26 07:20:07;;;;;;;;;;;;;;;10.46;100.00;100257.41;5495094;26;821;-81
2024/04/26 07:22:33;;;;;;;;;;;;;;;10.39;100.00;100250.88;5498199;26;942;-83
2024/04/26 07:24:59;;;;;;;;;;;;;;;10.30;100.00;100249.88;5513636;26;927;-83
2024/04/26 07:27:25;;;;;;;;;;;;;;;10.44;100.00;100264.75;5532785;26;1861;-82
2024/04/26 07:29:51;;;;;;;;;;;;;;;10.57;100.00;100259.97;5536337;26;911;-81
2024/04/26 07:32:17;;;;;;;;;;;;;;;10.63;100.00;100256.75;5535558;26;825;-82
2024/04/26 07:34:43;;;;;;;;;;;;;;;10.63;100.00;100264.78;5535101;26;839;-81
2024/04/26 07:37:09;;;;;;;;;;;;;;;10.65;100.00;100268.19;5570646;25;1455;-82
2024/04/26 07:39:35;;;;;;;;;;;;;;;10.78;100.00;100267.91;5573295;25;952;-82
2024/04/26 07:42:02;;;;;;;;;;;;;;;10.72;100.00;100265.81;5538362;25;944;-82
2024/04/26 07:44:28;;;;;;;;;;;;;;;10.60;100.00;100265.03;5464220;26;1427;-82
2024/04/26 07:46:54;;;;;;;;;;;;;;;10.52;100.00;100272.91;5465594;26;1817;-82
2024/04/26 07:49:20;;;;;;;;;;;;;;;10.56;100.00;100269.00;5498488;26;828;-83
2024/04/26 07:51:48;;;;;;;;;;;;;;;10.53;100.00;100269.28;5498841;26;1011;-82
2024/04/26 07:54:14;;;;;;;;;;;;;;;10.47;100.00;100269.81;5497608;26;985;-82
2024/04/26 07:56:40;;;;;;;;;;;;;;;10.55;100.00;100276.19;5496813;26;1213;-81
2024/04/26 07:59:06;;;;;;;;;;;;;;;10.79;100.00;100274.97;5509074;26;2106;-81
2024/04/26 08:01:32;;;;;;;;;;;;;;;11.05;100.00;100277.97;5463924;26;803;-81
2024/04/26 08:03:58;;;;;;;;;;;;;;;11.25;100.00;100277.00;5497776;26;850;-81
2024/04/26 08:06:25;;;;;;;;;;;;;;;11.34;100.00;100276.13;5497189;26;796;-81
2024/04/26 08:08:50;;;;;;;;;;;;;;;11.33;100.00;100278.97;5497818;26;1835;-81
2024/04/26 08:11:17;;;;;;;;;;;;;;;11.25;100.00;100279.66;5497246;26;985;-81
2024/04/26 08:13:42;;;;;;;;;;;;;;;11.23;100.00;100278.13;5497621;26;895;-81
2024/04/26 08:16:08;;;;;;;;;;;;;;;11.28;100.00;100282.06;5497545;26;926;-81
2024/04/26 08:18:34;;;;;;;;;;;;;;;11.46;100.00;100280.34;5499758;26;1199;-83
2024/04/26 08:21:00;;;;;;;;;;;;;;;11.63;100.00;100284.16;5499425;26;976;-82
2024/04/26 08:23:26;;;;;;;;;;;;;;;11.75;100.00;100282.16;5499213;26;988;-84
2024/04/26 08:25:52;;;;;;;;;;;;;;;11.72;100.00;100290.50;5500506;26;875;-84
2024/04/26 08:28:18;;;;;;;;;;;;;;;11.71;100.00;100286.97;5500922;26;1814;-83
2024/04/26 08:30:47;;;;;;;;;;;;;;;11.80;100.00;100281.75;5500321;26;915;-84
2024/04/26 08:33:13;;;;;;;;;;;;;;;11.78;100.00;100288.06;5518344;26;886;-83
2024/04/26 08:35:39;;;;;;;;;;;;;;;11.83;100.00;100286.84;5535487;26;1204;-83
2024/04/26 08:38:05;;;;;;;;;;;;;;;12.07;100.00;100281.81;5535427;26;1155;-83
2024/04/26 08:40:32;;;;;;;;;;;;;;;12.13;100.00;100275.84;5535739;26;906;-83
2024/04/26 08:42:59;;;;;;;;;;;;;;;12.01;100.00;100293.16;5533720;26;823;-82
2024/04/26 08:45:31;;;;;;;;;;;;;;;11.88;100.00;100284.56;5532525;26;894;-83
2024/04/26 08:47:57;;;;;;;;;;;;;;;11.81;100.00;100294.22;5501696;26;1852;-81
2024/04/26 08:50:26;;;;;;;;;;;;;;;11.93;100.00;100285.81;5513152;26;1000;-82
2024/04/26 08:52:56;;;;;;;;;;;;;;;12.13;100.00;100289.31;5496633;26;990;-81
2024/04/26 08:55:23;;;;;;;;;;;;;;;12.24;100.00;100289.09;5495511;26;601;-81
2024/04/26 08:57:50;;;;;;;;;;;;;;;12.31;100.00;100295.59;5505536;26;1565;-81
2024/04/26 09:00:18;;;;;;;;;;;;;;;12.35;100.00;100294.28;5533571;25;1848;-82
2024/04/26 09:02:44;;;;;;;;;;;;;;;12.46;100.00;100287.03;5534375;25;780;-82
2024/04/26 09:05:13;;;;;;;;;;;;;;;12.63;100.00;100288.94;5534167;25;801;-81
2024/04/26 09:07:39;;;;;;;;;;;;;;;12.78;100.00;100292.81;5502195;26;1829;-82
2024/04/26 09:10:06;;;;;;;;;;;;;;;12.67;100.00;100297.53;5532803;26;823;-82
2024/04/26 09:12:32;;;;;;;;;;;;;;;12.80;100.00;100293.50;5533231;25;827;-83
2024/04/26 09:14:58;;;;;;;;;;;;;;;12.93;100.00;100293.13;5529715;25;1042;-83
2024/04/26 09:17:28;;;;;;;;;;;;;;;13.00;100.00;100298.75;5533371;26;1258;-83
2024/04/26 09:19:55;;;;;;;;;;;;;;;13.02;100.00;100297.59;5532391;26;618;-83
2024/04/26 09:22:23;;;;;;;;;;;;;;;13.01;100.00;100297.75;5533147;26;948;-81
2024/04/26 09:24:49;;;;;;;;;;;;;;;13.04;100.00;100300.13;5530456;26;933;-82
2024/04/26 09:27:15;;;;;;;;;;;;;;;13.02;100.00;100302.16;5534916;25;1837;-82
2024/04/26 09:29:41;;;;;;;;;;;;;;;13.19;100.00;100310.28;5534963;26;949;-80
2024/04/26 09:32:07;;;;;;;;;;;;;;;13.49;100.00;100309.03;5534021;25;1008;-81
2024/04/26 09:34:35;;;;;;;;;;;;;;;13.51;100.00;100305.34;5532988;25;909;-81
2024/04/26 09:37:04;;;;;;;;;;;;;;;13.37;93.65;100299.50;5524593;25;1230;-81
2024/04/26 09:39:31;;;;;;;;;;;;;;;13.47;100.00;100305.66;5496190;26;1004;-80
2024/04/26 09:41:58;;;;;;;;;;;;;;;13.43;94.75;100301.56;5526603;26;988;-83
2024/04/26 09:44:24;;;;;;;;;;;;;;;13.31;86.66;100313.56;5531821;25;836;-83
2024/04/26 09:46:51;;;;;;;;;;;;;;;13.54;85.60;100302.31;5499902;26;1218;-83
2024/04/26 09:49:17;;;;;;;;;;;;;;;13.71;90.83;100301.44;5534022;26;1816;-83
2024/04/26 09:51:46;;;;;;;;;;;;;;;13.82;85.90;100294.97;5532684;26;929;-83
2024/04/26 09:54:15;;;;;;;;;;;;;;;14.10;81.09;100296.50;5532508;25;1000;-85
2024/04/26 09:56:41;;;;;;;;;;;;;;;14.10;71.40;100301.03;5532207;25;2667;-83
2024/04/26 09:59:08;;;;;;;;;;;;;;;13.64;68.66;100298.53;5520694;26;804;-83
2024/04/26 10:01:37;;;;;;;;;;;;;;;13.60;70.19;100301.69;5496811;26;942;-83
2024/04/26 10:04:03;;;;;;;;;;;;;;;13.62;68.79;100308.63;5496367;26;971;-83
2024/04/26 10:06:40;;;;;;;;;;;;;;;13.58;72.32;100307.25;5464189;26;802;-85
2024/04/26 10:09:09;;;;;;;;;;;;;;;13.66;73.52;100306.44;5495629;26;1825;-81
2024/04/26 10:11:49;;;;;;;;;;;;;;;13.47;72.95;100313.72;5495360;26;927;-82
2024/04/26 10:14:32;;;;;;;;;;;;;;;13.19;74.22;100314.81;5463361;26;828;-82
2024/04/26 10:17:12;;;;;;;;;;;;;;;13.23;76.93;100310.81;5492860;26;1179;-80
2024/04/26 10:19:42;;;;;;;;;;;;;;;13.31;79.57;100313.56;5524224;26;2995;-79
2024/04/26 10:22:09;;;;;;;;;;;;;;;13.46;75.39;100308.47;5529312;26;922;-81
2024/04/26 10:24:42;;;;;;;;;;;;;;;13.86;76.66;100307.09;5530005;26;767;-80
2024/04/26 10:27:10;;;;;;;;;;;;;;;14.01;72.98;100305.53;5532654;26;1297;-80
2024/04/26 10:29:37;;;;;;;;;;;;;;;14.25;74.40;100308.38;5533107;26;1867;-80
2024/04/26 10:32:07;;;;;;;;;;;;;;;14.44;75.37;100309.97;5529788;25;860;-80
2024/04/26 10:34:33;;;;;;;;;;;;;;;14.59;73.88;100313.81;5530895;26;914;-80
2024/04/26 10:37:00;;;;;;;;;;;;;;;14.47;71.64;100315.09;5532161;26;1187;-81
2024/04/26 10:39:27;;;;;;;;;;;;;;;14.45;73.07;100317.09;5532855;26;984;-80
2024/04/26 10:41:55;;;;;;;;;;;;;;;14.79;74.52;100316.25;5500281;26;910;-79
2024/04/26 10:44:22;;;;;;;;;;;;;;;15.19;72.11;100313.66;5531381;26;827;-84
2024/04/26 10:46:59;;;;;;;;;;;;;;;15.57;74.60;100313.19;5507801;26;3041;-83
2024/04/26 10:49:26;;;;;;;;;;;;;;;15.74;63.36;100314.91;5531442;25;1836;-83
2024/04/26 10:52:02;;;;;;;;;;;;;;;15.45;59.35;100315.38;5493758;26;3133;-83
2024/04/26 10:54:30;;;;;;;;;;;;;;;15.33;61.29;100316.69;5493287;26;863;-84
2024/04/26 10:56:57;;;;;;;;;;;;;;;15.21;62.65;100318.88;5494794;26;1273;-83
2024/04/26 10:59:25;;;;;;;;;;;;;;;15.13;62.48;100321.56;5497499;26;866;-83
2024/04/26 11:01:59;;;;;;;;;;;;;;;15.11;63.45;100320.88;5494950;26;943;-83
2024/04/26 11:04:34;;;;;;;;;;;;;;;14.68;63.08;100325.50;5464425;26;3099;-84
2024/04/26 11:07:13;;;;;;;;;;;;;;;14.82;65.27;100329.41;5496905;26;1191;-82
2024/04/26 11:09:46;;;;;;;;;;;;;;;14.81;64.82;100335.81;5499773;26;1826;-83
2024/04/26 11:12:13;;;;;;;;;;;;;;;14.70;61.65;100328.88;5497918;26;794;-82
2024/04/26 11:14:39;;;;;;;;;;;;;;;14.63;61.70;100336.75;5498220;26;922;-83
2024/04/26 11:17:07;;;;;;;;;;;;;;;14.59;61.84;100343.50;5499974;26;1214;-84
2024/04/26 11:19:35;;;;;;;;;;;;;;;14.53;62.39;100349.53;5498987;26;880;-84
2024/04/26 11:22:02;;;;;;;;;;;;;;;14.67;62.93;100341.84;5498336;26;999;-82
2024/04/26 11:24:28;;;;;;;;;;;;;;;14.96;63.90;100345.00;5495787;26;869;-81
2024/04/26 11:26:54;;;;;;;;;;;;;;;15.03;59.95;100348.72;5465554;26;1223;-82
2024/04/26 11:29:20;;;;;;;;;;;;;;;15.06;62.33;100342.16;5498033;26;1863;-82
2024/04/26 11:31:47;;;;;;;;;;;;;;;14.85;63.03;100356.94;5498431;26;1008;-81
2024/04/26 11:34:13;;;;;;;;;;;;;;;14.58;59.47;100363.41;5466756;26;1089;-81
2024/04/26 11:36:43;;;;;;;;;;;;;;;14.66;59.68;100359.91;5504868;26;3324;-81
2024/04/26 11:39:10;;;;;;;;;;;;;;;14.74;59.47;100367.16;5530539;25;821;-83
2024/04/26 11:41:37;;;;;;;;;;;;;;;14.70;57.20;100355.00;5498113;26;1028;-82
2024/04/26 11:44:03;;;;;;;;;;;;;;;14.82;59.11;100362.66;5533333;26;941;-81
2024/04/26 11:46:29;;;;;;;;;;;;;;;14.80;58.76;100370.06;5533565;25;945;-81
2024/04/26 11:48:55;;;;;;;;;;;;;;;14.79;61.21;100379.19;5500503;25;1829;-81
2024/04/26 11:51:22;;;;;;;;;;;;;;;14.70;65.11;100384.72;5533439;25;937;-82
2024/04/26 11:53:48;;;;;;;;;;;;;;;14.44;74.16;100399.03;5533947;25;837;-84
2024/04/26 11:56:15;;;;;;;;;;;;;;;14.30;84.35;100392.38;5533377;25;948;-81
2024/04/26 11:58:41;;;;;;;;;;;;;;;14.29;90.14;100396.09;5531972;26;1213;-82
2024/04/26 12:01:08;;;;;;;;;;;;;;;14.44;98.00;100398.19;5533763;25;946;-81
2024/04/26 12:03:34;;;;;;;;;;;;;;;14.83;99.82;100406.69;5532843;26;846;-81
2024/04/26 12:06:00;;;;;;;;;;;;;;;15.00;94.53;100407.63;5499690;26;794;-81
2024/04/26 12:08:26;;;;;;;;;;;;;;;15.00;95.99;100405.78;5532986;26;1809;-80
2024/04/26 12:10:53;;;;;;;;;;;;;;;14.91;96.27;100412.16;5532848;26;937;-80
2024/04/26 12:13:20;;;;;;;;;;;;;;;14.91;95.62;100410.28;5531512;26;845;-81
2024/04/26 12:15:46;;;;;;;;;;;;;;;15.18;94.19;100411.94;5533099;26;952;-81
2024/04/26 12:18:14;;;;;;;;;;;;;;;15.58;83.79;100414.91;5533308;25;1190;-82
2024/04/26 12:20:41;;;;;;;;;;;;;;;15.99;78.39;100402.28;5533926;25;988;-81
2024/04/26 12:23:07;;;;;;;;;;;;;;;16.76;79.62;100403.53;5497971;26;3043;-82
2024/04/26 12:25:36;;;;;;;;;;;;;;;17.37;70.61;100401.06;5500415;26;3216;-83
2024/04/26 12:28:05;;;;;;;;;;;;;;;17.47;59.86;100407.94;5492504;26;1833;-80
2024/04/26 12:30:32;;;;;;;;;;;;;;;17.76;61.12;100395.59;5493310;26;756;-81
2024/04/26 12:32:58;;;;;;;;;;;;;;;17.14;57.69;100403.75;5494688;26;763;-79
2024/04/26 12:35:24;;;;;;;;;;;;;;;17.46;57.53;100403.56;5496024;26;1004;-80
2024/04/26 12:37:50;;;;;;;;;;;;;;;17.75;59.21;100402.03;5518337;26;2894;-80
2024/04/26 12:40:16;;;;;;;;;;;;;;;17.90;56.47;100402.97;5532211;26;1018;-80
2024/04/26 12:42:43;;;;;;;;;;;;;;;18.07;55.63;100398.22;5533044;26;759;-80
2024/04/26 12:45:09;;;;;;;;;;;;;;;17.84;53.97;100400.13;5532763;26;847;-80